KTAD/TAD METAR and TAF weather

Enter ICAO airport designator
Station Type Date Time Source
KTAD METAR 2022/07/03 14:54 UTC NOAA

KTAD 031454Z AUTO 21007KT 170V250 10SM CLR 22/13 A3014 RMK AO2 SLP130 T02220128 58005 TSNO


Station Type Date Time Source
KTAD Decoded METAR 2022/07/03 14:54 UTC NOAA

Trinidad, Perry Stokes Airport, CO, United States (KTAD) 37-16N 104-26W
Jul 03, 2022 - 10:54 AM EDT / 2022.07.03 1454 UTC
Wind: from the SSW (210 degrees) at 8 MPH (7 KT) (direction variable):0
Visibility: 10 mile(s):0
Sky conditions: clear
Temperature: 72.0 F (22.2 C)
Dew Point: 55.0 F (12.8 C)
Relative Humidity: 55%
Pressure (altimeter): 30.14 in. Hg (1020 hPa)
Pressure tendency: 0.01 inches (0.5 hPa) lower than three hours ago
ob: KTAD 031454Z AUTO 21007KT 170V250 10SM CLR 22/13 A3014 RMK AO2 SLP130 T02220128 58005 TSNO
cycle: 15

Station Type Date Time Source
KTAD TAF UTC NOAA

Error!

Example: see airport list